Time;durP1;ratioP1;P1;durP2;ratioP2;P2;SDS_P1;SDS_P2;PMS_P1;PMS_P2;Temp;Humidity;BMP_temperature;BMP_pressure;BME280_temperature;BME280_humidity;BME280_pressure;Samples;Min_cycle;Max_cycle;Signal;HPM_P1;HPM_P2
2023/10/30 00:17:01;;;;;;;;;;;12.30;99.90;;;;;;6749650;88;20096;-82
2023/10/30 00:27:02;;;;;;;;;;;12.20;99.90;;;;;;6749581;88;20026;-82
2023/10/30 00:37:02;;;;;;;;;;;12.30;99.90;;;;;;6749407;88;20030;-81
2023/10/30 00:47:04;;;;;;;;;;;12.40;99.90;;;;;;6749189;88;20050;-83
2023/10/30 00:57:04;;;;;;;;;;;12.20;99.90;;;;;;6748579;88;20043;-82
2023/10/30 01:07:05;;;;;;;;;;;12.10;99.90;;;;;;6749731;88;20097;-81
2023/10/30 01:17:06;;;;;;;;;;;12.30;99.90;;;;;;6751302;88;20083;-82
2023/10/30 01:27:06;;;;;;;;;;;12.40;99.90;;;;;;6734296;88;20028;-81
2023/10/30 01:37:07;;;;;;;;;;;12.50;99.90;;;;;;6734509;88;20110;-82
2023/10/30 01:47:08;;;;;;;;;;;12.50;99.90;;;;;;6730499;88;20045;-82
2023/10/30 01:57:08;;;;;;;;;;;12.50;99.90;;;;;;6734179;88;20039;-82
2023/10/30 02:07:09;;;;;;;;;;;12.60;99.90;;;;;;6734089;88;20050;-80
2023/10/30 02:17:09;;;;;;;;;;;12.60;99.90;;;;;;6734303;88;20210;-81
2023/10/30 02:27:10;;;;;;;;;;;12.60;99.90;;;;;;6733076;88;20661;-83
2023/10/30 02:37:10;;;;;;;;;;;12.60;99.90;;;;;;6732521;88;20097;-82
2023/10/30 02:47:11;;;;;;;;;;;12.40;99.90;;;;;;6732174;88;20084;-82
2023/10/30 02:57:12;;;;;;;;;;;12.40;99.90;;;;;;6731694;88;20057;-82
2023/10/30 03:07:15;;;;;;;;;;;12.40;99.90;;;;;;6732143;88;20143;-81
2023/10/30 03:17:15;;;;;;;;;;;12.40;99.90;;;;;;6732541;88;20075;-82
2023/10/30 03:27:16;;;;;;;;;;;12.40;99.90;;;;;;6732786;88;20582;-82
2023/10/30 03:37:17;;;;;;;;;;;12.40;99.90;;;;;;6732656;88;20051;-81
2023/10/30 03:47:17;;;;;;;;;;;12.40;99.90;;;;;;6732607;88;20061;-80
2023/10/30 03:57:17;;;;;;;;;;;12.40;99.90;;;;;;6732902;88;20035;-81
2023/10/30 04:07:19;;;;;;;;;;;12.30;99.90;;;;;;6732417;88;20036;-81
2023/10/30 04:17:19;;;;;;;;;;;12.20;99.90;;;;;;6732540;88;20821;-81
2023/10/30 04:27:21;;;;;;;;;;;12.00;99.90;;;;;;6732541;88;20099;-81
2023/10/30 04:37:22;;;;;;;;;;;11.90;99.90;;;;;;6732418;88;20036;-81
2023/10/30 04:47:23;;;;;;;;;;;11.90;99.90;;;;;;6732343;88;20562;-82
2023/10/30 04:57:23;;;;;;;;;;;11.90;99.90;;;;;;6734435;88;20050;-83
2023/10/30 05:07:24;;;;;;;;;;;11.80;99.90;;;;;;6733351;88;20072;-83
2023/10/30 05:17:25;;;;;;;;;;;11.80;99.90;;;;;;6734590;88;20023;-84
2023/10/30 05:27:27;;;;;;;;;;;11.80;99.90;;;;;;6735041;88;20047;-83
2023/10/30 05:37:28;;;;;;;;;;;11.70;99.90;;;;;;6734615;88;20075;-79
2023/10/30 05:47:28;;;;;;;;;;;11.70;99.90;;;;;;6769193;87;20082;-81
2023/10/30 05:57:29;;;;;;;;;;;11.80;99.90;;;;;;6768844;87;20081;-81
2023/10/30 06:18:11;;;;;;;;;;;11.70;99.90;;;;;;6760130;88;20046;-80
2023/10/30 06:28:12;;;;;;;;;;;11.80;99.90;;;;;;6762431;88;20049;-80
2023/10/30 06:38:12;;;;;;;;;;;11.80;99.90;;;;;;6761968;87;20053;-84
2023/10/30 06:48:13;;;;;;;;;;;11.90;99.90;;;;;;6761323;88;20071;-81
2023/10/30 06:58:13;;;;;;;;;;;12.00;99.90;;;;;;6764789;87;20025;-81
2023/10/30 07:08:14;;;;;;;;;;;12.00;99.90;;;;;;6750932;88;20588;-80
2023/10/30 07:18:14;;;;;;;;;;;12.10;99.90;;;;;;6741977;88;20059;-80
2023/10/30 07:28:16;;;;;;;;;;;12.10;99.90;;;;;;6745160;88;20579;-80
2023/10/30 07:38:16;;;;;;;;;;;12.20;99.90;;;;;;6740006;88;20193;-80
2023/10/30 07:48:17;;;;;;;;;;;12.20;99.90;;;;;;6742843;88;20237;-79
2023/10/30 07:58:17;;;;;;;;;;;12.10;99.90;;;;;;6742062;88;20113;-79
2023/10/30 08:08:18;;;;;;;;;;;12.30;99.90;;;;;;6737567;88;20055;-80
2023/10/30 08:18:19;;;;;;;;;;;12.30;99.90;;;;;;6741951;88;20059;-79
2023/10/30 08:28:19;;;;;;;;;;;12.60;99.90;;;;;;6740277;88;20183;-79
2023/10/30 08:38:20;;;;;;;;;;;12.90;99.90;;;;;;6763840;87;20132;-82
2023/10/30 08:48:20;;;;;;;;;;;13.20;99.90;;;;;;6731888;88;20093;-82
2023/10/30 08:58:21;;;;;;;;;;;13.50;99.90;;;;;;6732331;88;20200;-82
2023/10/30 09:08:21;;;;;;;;;;;13.90;99.90;;;;;;6731933;88;20164;-82
2023/10/30 09:18:22;;;;;;;;;;;14.40;99.90;;;;;;6745436;88;20117;-83
2023/10/30 09:28:22;;;;;;;;;;;15.00;99.90;;;;;;6748875;88;20517;-82
2023/10/30 09:38:24;;;;;;;;;;;14.80;99.90;;;;;;6747897;88;20042;-82
2023/10/30 09:48:25;;;;;;;;;;;14.40;99.90;;;;;;6749292;88;20187;-82
2023/10/30 09:58:28;;;;;;;;;;;14.60;99.90;;;;;;6751855;88;20047;-82
2023/10/30 10:08:28;;;;;;;;;;;14.90;99.90;;;;;;6751892;87;20813;-79
2023/10/30 10:18:30;;;;;;;;;;;15.60;99.90;;;;;;6732709;88;20066;-80
2023/10/30 10:28:31;;;;;;;;;;;15.70;99.90;;;;;;6736787;88;20120;-80
2023/10/30 10:38:32;;;;;;;;;;;16.00;99.90;;;;;;6739933;88;20032;-81
2023/10/30 10:48:32;;;;;;;;;;;16.10;99.90;;;;;;6736249;88;20705;-80
2023/10/30 10:58:43;;;;;;;;;;;15.70;99.90;;;;;;6736456;88;20137;-80
2023/10/30 11:08:49;;;;;;;;;;;15.30;99.90;;;;;;6736676;88;20552;-80
2023/10/30 11:18:52;;;;;;;;;;;15.30;99.90;;;;;;6736022;88;20058;-81
2023/10/30 11:28:53;;;;;;;;;;;15.30;99.90;;;;;;6735369;88;20553;-80
2023/10/30 11:38:57;;;;;;;;;;;15.40;99.90;;;;;;6746481;88;20744;-81
2023/10/30 11:48:58;;;;;;;;;;;15.40;99.90;;;;;;6757421;88;20101;-80
2023/10/30 11:58:59;;;;;;;;;;;15.40;99.90;;;;;;6754362;88;20038;-81
2023/10/30 12:19:43;;;;;;;;;;;15.40;99.90;;;;;;6739642;88;20068;-82
2023/10/30 12:29:43;;;;;;;;;;;15.40;99.90;;;;;;6739896;88;20156;-82
2023/10/30 12:40:07;;;;;;;;;;;15.30;99.90;;;;;;6738882;88;20121;-82
2023/10/30 12:50:08;;;;;;;;;;;15.30;99.90;;;;;;6720845;88;20051;-82
2023/10/30 13:00:10;;;;;;;;;;;15.30;99.90;;;;;;6712551;88;20055;-80
2023/10/30 13:10:10;;;;;;;;;;;15.40;99.90;;;;;;6714697;88;20062;-81
2023/10/30 13:20:11;;;;;;;;;;;15.30;99.90;;;;;;6718144;88;20084;-80
2023/10/30 13:30:12;;;;;;;;;;;15.30;99.90;;;;;;6715533;88;20062;-81
2023/10/30 13:40:13;;;;;;;;;;;15.30;99.90;;;;;;6713943;88;20176;-81
2023/10/30 13:50:13;;;;;;;;;;;15.30;99.90;;;;;;6724177;88;20659;-76
2023/10/30 14:00:14;;;;;;;;;;;15.30;99.90;;;;;;6720628;88;20055;-81
2023/10/30 14:10:14;;;;;;;;;;;15.30;99.90;;;;;;6719275;88;20047;-82
2023/10/30 14:20:17;;;;;;;;;;;15.30;99.90;;;;;;6717088;88;20097;-81
2023/10/30 14:30:17;;;;;;;;;;;15.20;99.90;;;;;;6715031;88;20075;-80
2023/10/30 14:40:18;;;;;;;;;;;15.10;99.90;;;;;;6713910;88;20137;-79
2023/10/30 14:50:19;;;;;;;;;;;14.90;99.90;;;;;;6719706;88;20069;-81
2023/10/30 15:00:20;;;;;;;;;;;14.70;99.90;;;;;;6718208;88;20122;-81
2023/10/30 15:10:20;;;;;;;;;;;14.60;99.90;;;;;;6719087;88;20085;-80
2023/10/30 15:20:21;;;;;;;;;;;14.40;99.90;;;;;;6728357;88;20537;-81
2023/10/30 15:30:22;;;;;;;;;;;14.40;99.90;;;;;;6724378;88;20073;-82
2023/10/30 15:40:22;;;;;;;;;;;14.30;99.90;;;;;;6719328;88;20059;-82
2023/10/30 15:50:23;;;;;;;;;;;14.30;99.90;;;;;;6723478;88;20592;-83
2023/10/30 16:00:23;;;;;;;;;;;14.30;99.90;;;;;;6732470;88;20608;-85
2023/10/30 16:42:48;;;;;;;;;;;13.00;99.90;;;;;;6761961;77;20028;-83
2023/10/30 17:03:30;;;;;;;;;;;12.90;99.90;;;;;;6769276;88;20126;-84
2023/10/30 17:13:31;;;;;;;;;;;12.90;99.90;;;;;;6767672;88;20038;-84
2023/10/30 17:23:34;;;;;;;;;;;12.90;99.90;;;;;;6768889;88;20080;-83
2023/10/30 17:33:35;;;;;;;;;;;12.90;99.90;;;;;;6769318;88;20850;-83
2023/10/30 17:43:35;;;;;;;;;;;13.00;99.90;;;;;;6768683;88;20140;-82
2023/10/30 17:53:36;;;;;;;;;;;12.90;99.90;;;;;;6760319;88;20069;-81
2023/10/30 18:03:37;;;;;;;;;;;13.00;99.90;;;;;;6750306;88;20026;-82
2023/10/30 18:13:37;;;;;;;;;;;12.90;99.90;;;;;;6747409;88;20035;-81
2023/10/30 18:23:39;;;;;;;;;;;13.00;99.90;;;;;;6727822;88;20071;-80
2023/10/30 18:33:39;;;;;;;;;;;12.90;99.90;;;;;;6717687;88;20098;-78
2023/10/30 18:43:40;;;;;;;;;;;13.10;99.90;;;;;;6742863;88;20855;-80
2023/10/30 18:53:40;;;;;;;;;;;13.00;99.90;;;;;;6726889;88;20049;-81
2023/10/30 19:03:41;;;;;;;;;;;13.00;99.90;;;;;;6744374;88;20058;-81
2023/10/30 19:13:41;;;;;;;;;;;13.00;99.90;;;;;;6736874;88;20061;-82
2023/10/30 19:23:42;;;;;;;;;;;12.90;99.90;;;;;;6743213;88;20075;-83
2023/10/30 19:33:43;;;;;;;;;;;13.10;99.90;;;;;;6740451;88;20516;-81
2023/10/30 19:43:44;;;;;;;;;;;13.00;99.90;;;;;;6706334;88;20055;-82
2023/10/30 19:53:44;;;;;;;;;;;13.10;99.90;;;;;;6705911;88;20055;-82
2023/10/30 20:03:45;;;;;;;;;;;13.00;99.90;;;;;;6709639;88;20129;-83
2023/10/30 20:13:45;;;;;;;;;;;13.00;99.90;;;;;;6736572;88;20074;-83
2023/10/30 20:23:45;;;;;;;;;;;13.10;99.90;;;;;;6749583;88;20026;-82
2023/10/30 20:33:46;;;;;;;;;;;13.20;99.90;;;;;;6748071;88;20072;-83
2023/10/30 20:43:47;;;;;;;;;;;13.00;99.90;;;;;;6748166;88;20038;-82
2023/10/30 20:53:47;;;;;;;;;;;13.10;99.90;;;;;;6749111;88;20038;-83
2023/10/30 21:03:50;;;;;;;;;;;12.90;99.90;;;;;;6746202;88;20140;-82
2023/10/30 21:13:50;;;;;;;;;;;12.90;99.90;;;;;;6749134;88;20058;-83
2023/10/30 21:23:54;;;;;;;;;;;13.00;99.90;;;;;;6748201;88;20124;-81
2023/10/30 21:33:54;;;;;;;;;;;13.00;99.90;;;;;;6746428;88;20043;-81
2023/10/30 21:43:56;;;;;;;;;;;13.10;99.90;;;;;;6749633;88;20077;-83
2023/10/30 21:53:59;;;;;;;;;;;13.10;99.90;;;;;;6748760;88;20023;-80
2023/10/30 22:03:59;;;;;;;;;;;13.10;99.90;;;;;;6748009;88;20239;-80
2023/10/30 22:14:00;;;;;;;;;;;13.10;99.90;;;;;;6747955;88;20628;-81
2023/10/30 22:24:00;;;;;;;;;;;13.20;99.90;;;;;;6751735;88;20030;-81
2023/10/30 22:34:01;;;;;;;;;;;13.20;99.90;;;;;;6751603;88;20053;-81
2023/10/30 22:44:02;;;;;;;;;;;13.30;99.90;;;;;;6747868;88;20047;-81
2023/10/30 22:54:03;;;;;;;;;;;13.20;99.90;;;;;;6747846;88;20027;-81
2023/10/30 23:04:04;;;;;;;;;;;13.30;99.90;;;;;;6751072;88;20030;-81
2023/10/30 23:14:04;;;;;;;;;;;13.00;99.90;;;;;;6751078;88;20019;-80
2023/10/30 23:24:05;;;;;;;;;;;12.70;99.90;;;;;;6750855;88;20249;-82
2023/10/30 23:34:07;;;;;;;;;;;12.70;99.90;;;;;;6750458;88;20046;-82
2023/10/30 23:44:08;;;;;;;;;;;12.50;99.90;;;;;;6750622;88;20136;-80
2023/10/30 23:54:08;;;;;;;;;;;12.50;99.90;;;;;;6750589;88;21010;-79
